createdAt,value
2018-11-01T00:01:44.732Z,22.20
2018-11-01T00:04:13.065Z,22.50
2018-11-01T00:06:41.178Z,23.53
2018-11-01T00:09:14.446Z,21.83
2018-11-01T00:11:42.527Z,22.10
2018-11-01T00:14:10.719Z,24.20
2018-11-01T00:16:38.917Z,21.77
2018-11-01T00:19:07.068Z,21.73
2018-11-01T00:21:35.231Z,21.63
2018-11-01T00:24:03.427Z,21.70
2018-11-01T00:26:32.528Z,22.30
2018-11-01T00:29:00.731Z,22.23
2018-11-01T00:31:28.855Z,20.73
2018-11-01T00:33:57.051Z,19.43
2018-11-01T00:36:25.220Z,21.17
2018-11-01T00:38:53.431Z,20.33
2018-11-01T00:41:21.574Z,19.62
2018-11-01T00:43:49.730Z,20.10
2018-11-01T00:46:17.932Z,19.47
2018-11-01T00:48:46.100Z,20.13
2018-11-01T00:51:14.358Z,20.10
2018-11-01T00:53:42.552Z,20.27
2018-11-01T00:56:10.683Z,20.52
2018-11-01T00:58:38.776Z,19.80
2018-11-01T01:01:06.971Z,19.70
2018-11-01T01:03:35.137Z,19.77
2018-11-01T01:06:03.316Z,20.30
2018-11-01T01:08:31.464Z,19.67
2018-11-01T01:10:59.579Z,19.53
2018-11-01T01:13:27.719Z,21.47
2018-11-01T01:15:55.954Z,21.03
2018-11-01T01:18:24.210Z,20.83
2018-11-01T01:20:52.419Z,21.17
2018-11-01T01:23:20.521Z,20.37
2018-11-01T01:25:48.703Z,21.03
2018-11-01T01:28:16.770Z,20.52
2018-11-01T01:30:44.950Z,19.65
2018-11-01T01:33:13.117Z,20.32
2018-11-01T01:35:41.317Z,21.33
2018-11-01T01:38:09.467Z,20.65
2018-11-01T01:40:37.632Z,18.57
2018-11-01T01:43:05.818Z,20.30
2018-11-01T01:45:33.986Z,18.80
2018-11-01T01:48:02.224Z,19.20
2018-11-01T01:50:30.383Z,18.55
2018-11-01T01:52:58.521Z,19.02
2018-11-01T01:55:26.708Z,19.15
2018-11-01T01:57:54.853Z,19.37
2018-11-01T02:00:23.027Z,18.90
2018-11-01T02:02:52.203Z,19.15
2018-11-01T02:05:20.365Z,19.70
2018-11-01T02:07:48.485Z,19.67
2018-11-01T02:10:17.643Z,19.50
2018-11-01T02:12:45.762Z,19.10
2018-11-01T02:15:16.152Z,19.48
2018-11-01T02:17:44.748Z,19.67
2018-11-01T02:20:14.769Z,21.07
2018-11-01T02:22:43.674Z,20.23
2018-11-01T02:25:11.828Z,19.20
2018-11-01T02:27:45.511Z,21.53
2018-11-01T02:30:14.732Z,19.98
2018-11-01T02:32:43.421Z,18.87
2018-11-01T02:35:12.831Z,19.13
2018-11-01T02:37:41.213Z,18.70
2018-11-01T02:40:09.977Z,20.67
2018-11-01T02:42:38.271Z,18.30
2018-11-01T02:45:07.179Z,18.13
2018-11-01T02:47:35.436Z,19.03
2018-11-01T02:50:03.547Z,18.70
2018-11-01T02:52:33.202Z,19.87
2018-11-01T02:55:01.584Z,19.00
2018-11-01T02:57:29.671Z,18.63
2018-11-01T02:59:57.871Z,20.35
2018-11-01T03:02:26.144Z,19.30
2018-11-01T03:04:54.413Z,19.62
2018-11-01T03:07:22.615Z,18.65
2018-11-01T03:09:50.766Z,19.77
2018-11-01T03:12:18.916Z,18.80
2018-11-01T03:14:46.995Z,18.42
2018-11-01T03:17:15.240Z,17.90
2018-11-01T03:19:43.383Z,17.12
2018-11-01T03:22:11.514Z,19.05
2018-11-01T03:24:39.606Z,16.37
2018-11-01T03:27:07.807Z,18.00
2018-11-01T03:29:35.971Z,17.57
2018-11-01T03:32:04.351Z,18.75
2018-11-01T03:34:32.506Z,16.62
2018-11-01T03:37:00.676Z,17.77
2018-11-01T03:39:28.847Z,18.00
2018-11-01T03:41:57.033Z,17.85
2018-11-01T03:44:25.209Z,18.00
2018-11-01T03:46:53.373Z,18.17
2018-11-01T03:49:21.567Z,17.35
2018-11-01T03:51:49.734Z,16.93
2018-11-01T03:54:17.955Z,17.40
2018-11-01T03:56:46.116Z,16.70
2018-11-01T03:59:14.288Z,17.95
2018-11-01T04:01:42.430Z,17.57
2018-11-01T04:04:10.608Z,17.75
2018-11-01T04:06:38.805Z,17.70
2018-11-01T04:09:09.268Z,17.62
2018-11-01T04:11:37.575Z,16.60
2018-11-01T04:14:06.004Z,17.17
2018-11-01T04:16:34.140Z,18.17
2018-11-01T04:19:02.313Z,17.85
2018-11-01T04:21:31.515Z,17.50
2018-11-01T04:23:59.767Z,17.25
2018-11-01T04:26:28.236Z,17.48
2018-11-01T04:28:56.755Z,18.12
2018-11-01T04:31:24.927Z,17.40
2018-11-01T04:33:53.168Z,16.37
2018-11-01T04:36:21.326Z,18.32
2018-11-01T04:38:49.448Z,17.60
2018-11-01T04:41:17.540Z,18.60
2018-11-01T04:43:45.691Z,17.17
2018-11-01T04:46:13.909Z,17.98
2018-11-01T04:48:42.477Z,18.15
2018-11-01T04:51:10.613Z,16.95
2018-11-01T04:53:38.793Z,17.20
2018-11-01T04:56:06.968Z,18.05
2018-11-01T04:58:35.436Z,17.45
2018-11-01T05:01:03.557Z,18.15
2018-11-01T05:03:31.812Z,19.67
2018-11-01T05:05:59.986Z,18.87
2018-11-01T05:08:28.152Z,18.92
2018-11-01T05:10:56.383Z,19.55
2018-11-01T05:13:24.491Z,18.65
2018-11-01T05:15:52.660Z,19.10
2018-11-01T05:18:20.844Z,18.65
2018-11-01T05:20:49.006Z,19.37
2018-11-01T05:23:17.083Z,19.92
2018-11-01T05:25:45.253Z,19.82
2018-11-01T05:28:13.344Z,18.57
2018-11-01T05:30:41.497Z,18.35
2018-11-01T05:33:09.592Z,19.65
2018-11-01T05:35:37.752Z,20.50
2018-11-01T05:38:06.061Z,19.48
2018-11-01T05:40:34.121Z,18.25
2018-11-01T05:43:02.355Z,22.35
2018-11-01T05:45:30.448Z,20.75
2018-11-01T05:47:58.618Z,19.90
2018-11-01T05:50:26.795Z,20.95
2018-11-01T05:52:54.860Z,22.20
2018-11-01T05:55:23.228Z,19.55
2018-11-01T05:57:51.354Z,21.33
2018-11-01T06:00:19.502Z,20.30
2018-11-01T06:02:48.892Z,21.90
2018-11-01T06:05:17.378Z,18.03
2018-11-01T06:07:48.824Z,19.52
2018-11-01T06:10:16.915Z,20.02
2018-11-01T06:12:45.111Z,19.90
2018-11-01T06:15:13.282Z,21.65
2018-11-01T06:17:41.755Z,17.65
2018-11-01T06:20:10.720Z,19.15
2018-11-01T06:22:38.844Z,19.40
2018-11-01T06:25:07.509Z,18.15
2018-11-01T06:27:35.671Z,17.80
2018-11-01T06:30:04.903Z,16.73
2018-11-01T06:32:33.031Z,15.07
2018-11-01T06:35:02.956Z,13.77
2018-11-01T06:37:31.096Z,15.97
2018-11-01T06:39:59.205Z,13.40
2018-11-01T06:42:27.372Z,15.83
2018-11-01T06:44:55.582Z,15.90
2018-11-01T06:47:23.744Z,13.33
2018-11-01T06:49:51.949Z,15.40
2018-11-01T06:52:20.131Z,14.60
2018-11-01T06:54:48.276Z,15.40
2018-11-01T06:57:16.441Z,13.70
2018-11-01T06:59:44.583Z,16.47
2018-11-01T07:02:12.696Z,16.00
2018-11-01T07:04:40.839Z,15.47
2018-11-01T07:07:09.017Z,15.27
2018-11-01T07:09:37.101Z,15.40
2018-11-01T07:12:05.324Z,16.10
2018-11-01T07:14:33.456Z,16.40
2018-11-01T07:17:01.687Z,17.10
2018-11-01T07:19:29.807Z,16.10
2018-11-01T07:21:57.918Z,17.23
2018-11-01T07:24:26.028Z,18.60
2018-11-01T07:26:54.100Z,18.80
2018-11-01T07:29:22.187Z,18.30
2018-11-01T07:31:50.349Z,19.70
2018-11-01T07:34:18.422Z,18.20
2018-11-01T07:36:47.436Z,18.90
2018-11-01T07:39:15.601Z,19.50
2018-11-01T07:41:43.804Z,18.50
2018-11-01T07:44:11.984Z,18.00
2018-11-01T07:46:40.141Z,19.03
2018-11-01T07:49:08.520Z,19.43
2018-11-01T07:51:36.733Z,18.60
2018-11-01T07:54:05.121Z,19.13
2018-11-01T07:56:33.353Z,20.60
2018-11-01T07:59:01.493Z,20.70
2018-11-01T08:01:29.576Z,23.07
2018-11-01T08:03:57.801Z,19.07
2018-11-01T08:06:25.948Z,19.93
2018-11-01T08:08:54.132Z,21.23
2018-11-01T08:11:22.287Z,19.90
2018-11-01T08:13:50.457Z,21.87
2018-11-01T08:16:18.623Z,25.60
2018-11-01T08:18:46.805Z,23.80
2018-11-01T08:21:15.092Z,23.20
2018-11-01T08:23:43.143Z,23.07
2018-11-01T08:26:11.359Z,23.67
2018-11-01T08:28:39.487Z,22.70
2018-11-01T08:31:07.606Z,24.20
2018-11-01T08:33:35.735Z,24.60
2018-11-01T08:36:03.845Z,24.40
2018-11-01T08:38:32.001Z,26.00
2018-11-01T08:41:00.224Z,24.27
2018-11-01T08:43:28.340Z,24.30
2018-11-01T08:45:56.531Z,24.67
2018-11-01T08:48:24.695Z,25.13
2018-11-01T08:50:52.898Z,23.97
2018-11-01T08:53:21.067Z,24.03
2018-11-01T08:55:49.235Z,23.80
2018-11-01T08:58:17.403Z,25.53
2018-11-01T09:00:45.575Z,23.70
2018-11-01T09:03:13.773Z,23.90
2018-11-01T09:05:41.936Z,23.50
2018-11-01T09:08:10.236Z,24.10
2018-11-01T09:10:38.373Z,24.70
2018-11-01T09:13:06.458Z,23.93
2018-11-01T09:15:34.610Z,23.70
2018-11-01T09:18:02.810Z,23.80
2018-11-01T09:20:30.960Z,24.00
2018-11-01T09:22:59.143Z,23.50
2018-11-01T09:25:27.349Z,23.53
2018-11-01T09:27:55.476Z,24.40
2018-11-01T09:30:23.622Z,23.77
2018-11-01T09:32:51.722Z,24.20
2018-11-01T09:35:19.913Z,24.30
2018-11-01T09:37:48.080Z,24.87
2018-11-01T09:40:16.551Z,24.97
2018-11-01T09:42:45.231Z,25.00
2018-11-01T09:45:13.491Z,24.40
2018-11-01T09:47:41.967Z,25.30
2018-11-01T09:50:10.792Z,27.63
2018-11-01T09:52:39.256Z,24.33
2018-11-01T09:55:07.394Z,24.53
2018-11-01T09:57:35.917Z,24.20
2018-11-01T10:00:05.040Z,24.80
2018-11-01T10:02:34.210Z,24.87
2018-11-01T10:05:02.335Z,24.43
2018-11-01T10:07:30.460Z,24.93
2018-11-01T10:09:58.580Z,24.57
2018-11-01T10:12:26.720Z,24.23
2018-11-01T10:14:54.916Z,25.00
2018-11-01T10:17:24.443Z,24.17
2018-11-01T10:19:52.067Z,25.40
2018-11-01T10:22:20.388Z,23.90
2018-11-01T10:24:48.437Z,23.83
2018-11-01T10:27:19.510Z,24.17
2018-11-01T10:29:44.788Z,24.33
2018-11-01T10:32:12.943Z,24.60
2018-11-01T10:34:41.199Z,24.03
2018-11-01T10:37:09.371Z,25.70
2018-11-01T10:39:37.456Z,23.50
2018-11-01T10:42:05.786Z,24.37
2018-11-01T10:44:33.905Z,24.47
2018-11-01T10:47:02.096Z,25.03
2018-11-01T10:49:30.268Z,24.70
2018-11-01T10:51:58.456Z,25.20
2018-11-01T10:54:26.685Z,24.83
2018-11-01T10:56:54.787Z,26.00
2018-11-01T10:59:22.947Z,24.23
2018-11-01T11:01:56.565Z,25.17
2018-11-01T11:04:24.756Z,23.97
2018-11-01T11:06:53.926Z,23.60
2018-11-01T11:09:22.111Z,24.07
2018-11-01T11:11:50.287Z,27.20
2018-11-01T11:14:18.520Z,25.57
2018-11-01T11:16:46.693Z,25.00
2018-11-01T11:19:14.858Z,23.37
2018-11-01T11:21:43.173Z,24.70
2018-11-01T11:24:11.288Z,23.33
2018-11-01T11:26:39.417Z,24.20
2018-11-01T11:29:07.530Z,24.87
2018-11-01T11:31:35.716Z,23.90
2018-11-01T11:34:03.876Z,23.90
2018-11-01T11:36:32.051Z,24.53
2018-11-01T11:39:00.266Z,24.60
2018-11-01T11:41:28.401Z,24.57
2018-11-01T11:43:56.548Z,25.30
2018-11-01T11:46:24.754Z,23.40
2018-11-01T11:48:52.909Z,25.60
2018-11-01T11:51:21.157Z,25.07
2018-11-01T11:53:49.271Z,24.87
2018-11-01T11:56:17.525Z,24.90
2018-11-01T11:58:45.692Z,25.20
2018-11-01T12:01:13.868Z,24.40
2018-11-01T12:03:42.337Z,24.20
2018-11-01T12:06:10.570Z,25.20
2018-11-01T12:08:38.546Z,24.40
2018-11-01T12:11:06.704Z,24.20
2018-11-01T12:13:34.863Z,24.03
2018-11-01T12:16:03.021Z,24.70
2018-11-01T12:18:31.203Z,24.67
2018-11-01T12:20:59.432Z,24.37
2018-11-01T12:23:27.535Z,23.70
2018-11-01T12:25:55.823Z,24.37
2018-11-01T12:28:24.021Z,24.93
2018-11-01T12:30:52.179Z,25.30
2018-11-01T12:33:20.354Z,23.70
2018-11-01T12:35:48.601Z,25.53
2018-11-01T12:38:16.810Z,24.13
2018-11-01T12:40:44.892Z,24.10
2018-11-01T12:43:13.034Z,23.90
2018-11-01T12:45:41.255Z,24.80
2018-11-01T12:48:09.404Z,24.77
2018-11-01T12:50:37.598Z,24.57
2018-11-01T12:53:05.872Z,23.80
2018-11-01T12:55:34.035Z,24.20
2018-11-01T12:58:02.207Z,23.80
2018-11-01T13:00:30.387Z,25.40
2018-11-01T13:02:58.648Z,24.40
2018-11-01T13:05:26.852Z,24.97
2018-11-01T13:07:55.030Z,23.77
2018-11-01T13:10:23.168Z,24.07
2018-11-01T13:12:51.424Z,25.33
2018-11-01T13:15:19.540Z,24.03
2018-11-01T13:17:47.741Z,24.33
2018-11-01T13:20:15.894Z,23.70
2018-11-01T13:22:44.676Z,24.50
2018-11-01T13:25:12.843Z,23.70
2018-11-01T13:27:41.211Z,23.43
2018-11-01T13:30:11.713Z,23.40
2018-11-01T13:32:39.819Z,24.30
2018-11-01T13:35:08.044Z,23.40
2018-11-01T13:37:36.143Z,23.03
2018-11-01T13:40:04.523Z,23.43
2018-11-01T13:42:32.528Z,23.93
2018-11-01T13:45:00.680Z,23.77
2018-11-01T13:47:29.035Z,24.00
2018-11-01T13:49:57.048Z,23.70
2018-11-01T13:52:25.202Z,24.17
2018-11-01T13:54:53.410Z,23.10
2018-11-01T13:57:21.560Z,23.97
2018-11-01T13:59:49.734Z,23.90
2018-11-01T14:02:17.910Z,24.93
2018-11-01T14:04:46.140Z,23.60
2018-11-01T14:07:14.272Z,23.70
2018-11-01T14:09:42.476Z,23.63
2018-11-01T14:12:10.607Z,24.17
2018-11-01T14:15:10.986Z,23.80
2018-11-01T14:17:39.086Z,22.40
2018-11-01T14:20:08.995Z,22.90
2018-11-01T14:22:37.124Z,22.97
2018-11-01T14:25:06.295Z,27.10
2018-11-01T14:27:34.485Z,24.60
2018-11-01T14:30:02.640Z,24.80
2018-11-01T14:32:30.997Z,23.27
2018-11-01T14:34:59.112Z,23.70
2018-11-01T14:37:27.286Z,23.20
2018-11-01T14:39:55.450Z,22.70
2018-11-01T14:42:23.633Z,24.17
2018-11-01T14:44:51.804Z,23.33
2018-11-01T14:48:44.536Z,23.13
2018-11-01T14:51:12.714Z,24.90
2018-11-01T14:53:41.093Z,26.50
2018-11-01T14:56:10.567Z,24.67
2018-11-01T14:58:38.697Z,24.17
2018-11-01T15:01:05.644Z,24.70
2018-11-01T15:03:33.785Z,23.27
2018-11-01T15:06:01.908Z,24.47
2018-11-01T15:08:30.041Z,31.43
2018-11-01T15:10:58.222Z,29.40
2018-11-01T15:13:26.388Z,25.40
2018-11-01T15:15:54.657Z,25.00
2018-11-01T15:18:22.871Z,23.77
2018-11-01T15:20:51.032Z,24.10
2018-11-01T15:23:19.237Z,23.20
2018-11-01T15:25:47.369Z,24.23
2018-11-01T15:28:15.735Z,25.33
2018-11-01T15:30:44.190Z,23.07
2018-11-01T15:33:12.364Z,24.13
2018-11-01T15:35:40.520Z,24.03
2018-11-01T15:38:08.659Z,23.57
2018-11-01T15:40:39.260Z,23.93
2018-11-01T15:43:07.388Z,24.10
2018-11-01T15:45:35.532Z,23.70
2018-11-01T15:48:03.891Z,24.23
2018-11-01T15:50:32.002Z,23.47
2018-11-01T15:53:00.148Z,22.83
2018-11-01T15:55:28.308Z,23.10
2018-11-01T15:57:56.418Z,22.53
2018-11-01T16:00:24.572Z,24.50
2018-11-01T16:02:52.781Z,23.87
2018-11-01T16:05:20.973Z,23.50
2018-11-01T16:07:49.112Z,22.93
2018-11-01T16:10:17.385Z,22.47
2018-11-01T16:12:45.428Z,22.17
2018-11-01T16:15:15.044Z,23.40
2018-11-01T16:17:43.230Z,23.03
2018-11-01T16:20:11.522Z,23.50
2018-11-01T16:22:40.371Z,23.47
2018-11-01T16:25:09.285Z,25.20
2018-11-01T16:27:37.495Z,23.77
2018-11-01T16:30:06.813Z,22.60
2018-11-01T16:32:34.930Z,22.53
2018-11-01T16:35:03.131Z,26.47
2018-11-01T16:37:31.331Z,23.80
2018-11-01T16:39:59.467Z,22.50
2018-11-01T16:42:27.681Z,24.12
2018-11-01T16:44:55.805Z,24.00
2018-11-01T16:47:24.049Z,23.43
2018-11-01T16:49:52.628Z,23.53
2018-11-01T16:52:20.759Z,23.10
2018-11-01T16:54:49.040Z,24.87
2018-11-01T16:57:17.229Z,22.90
2018-11-01T16:59:45.353Z,25.90
2018-11-01T17:02:13.607Z,22.70
2018-11-01T17:04:41.724Z,24.03
2018-11-01T17:07:10.178Z,22.63
2018-11-01T17:09:38.303Z,24.80
2018-11-01T17:12:06.476Z,24.03
2018-11-01T17:14:34.628Z,23.27
2018-11-01T17:17:02.795Z,23.93
2018-11-01T17:19:30.983Z,23.20
2018-11-01T17:21:59.119Z,22.97
2018-11-01T17:24:27.217Z,22.67
2018-11-01T17:26:55.430Z,23.43
2018-11-01T17:29:23.547Z,23.87
2018-11-01T17:31:51.724Z,29.50
2018-11-01T17:34:19.917Z,24.63
2018-11-01T17:36:48.087Z,24.63
2018-11-01T17:39:16.295Z,24.20
2018-11-01T17:41:44.457Z,23.40
2018-11-01T17:44:12.606Z,23.63
2018-11-01T17:46:40.838Z,23.87
2018-11-01T17:49:09.140Z,23.63
2018-11-01T17:51:37.303Z,23.60
2018-11-01T17:54:06.297Z,25.27
2018-11-01T17:56:34.706Z,23.40
2018-11-01T17:59:02.947Z,23.37
2018-11-01T18:01:31.185Z,23.00
2018-11-01T18:03:59.272Z,23.50
2018-11-01T18:06:27.439Z,24.17
2018-11-01T18:08:55.716Z,24.27
2018-11-01T18:11:23.763Z,22.40
2018-11-01T18:13:53.048Z,21.90
2018-11-01T18:16:21.317Z,22.17
2018-11-01T18:18:49.761Z,23.50
2018-11-01T18:21:17.956Z,22.80
2018-11-01T18:23:46.109Z,22.37
2018-11-01T18:26:14.263Z,22.60
2018-11-01T18:28:42.502Z,23.10
2018-11-01T18:31:10.615Z,23.67
2018-11-01T18:33:38.760Z,22.87
2018-11-01T18:36:07.028Z,23.17
2018-11-01T18:38:35.205Z,22.17
2018-11-01T18:41:03.500Z,22.90
2018-11-01T18:43:31.652Z,22.30
2018-11-01T18:46:00.061Z,23.23
2018-11-01T18:48:28.293Z,22.23
2018-11-01T18:50:56.424Z,24.47
2018-11-01T18:53:24.655Z,21.80
2018-11-01T18:55:52.888Z,23.50
2018-11-01T18:58:21.451Z,22.73
2018-11-01T19:00:49.590Z,24.23
2018-11-01T19:03:22.035Z,23.40
2018-11-01T19:05:50.127Z,24.43
2018-11-01T19:08:18.292Z,26.70
2018-11-01T19:10:46.399Z,24.50
2018-11-01T19:13:14.623Z,22.50
2018-11-01T19:15:42.770Z,22.70
2018-11-01T19:18:11.025Z,22.50
2018-11-01T19:20:39.207Z,22.33
2018-11-01T19:23:07.804Z,23.87
2018-11-01T19:25:35.982Z,24.60
2018-11-01T19:28:04.191Z,23.47
2018-11-01T19:30:32.202Z,23.10
2018-11-01T19:33:00.385Z,22.87
2018-11-01T19:35:28.583Z,22.40
2018-11-01T19:37:56.700Z,23.43
2018-11-01T19:40:24.936Z,23.10
2018-11-01T19:42:52.963Z,22.80
2018-11-01T19:45:21.164Z,21.87
2018-11-01T19:47:49.296Z,22.70
2018-11-01T19:50:17.416Z,23.10
2018-11-01T19:52:45.608Z,23.77
2018-11-01T19:55:13.984Z,25.17
2018-11-01T19:57:42.768Z,24.83
2018-11-01T20:00:13.907Z,24.00
2018-11-01T20:02:42.111Z,42.57
2018-11-01T20:05:10.810Z,34.23
2018-11-01T20:07:38.924Z,27.53
2018-11-01T20:10:08.449Z,26.93
2018-11-01T20:12:36.616Z,24.80
2018-11-01T20:15:05.968Z,24.90
2018-11-01T20:17:34.491Z,24.60
2018-11-01T20:20:02.695Z,30.63
2018-11-01T20:22:30.843Z,24.97
2018-11-01T20:24:59.029Z,24.30
2018-11-01T20:27:27.221Z,25.80
2018-11-01T20:29:55.457Z,24.30
2018-11-01T20:32:23.652Z,26.20
2018-11-01T20:34:51.901Z,26.63
2018-11-01T20:37:20.109Z,25.53
2018-11-01T20:39:48.316Z,27.30
2018-11-01T20:42:16.440Z,26.80
2018-11-01T20:44:44.603Z,26.97
2018-11-01T20:47:13.213Z,25.80
2018-11-01T20:49:41.383Z,25.67
2018-11-01T20:52:09.531Z,27.40
2018-11-01T20:54:37.938Z,24.97
2018-11-01T20:57:06.145Z,26.80
2018-11-01T20:59:34.487Z,24.50
2018-11-01T21:02:02.651Z,24.73
2018-11-01T21:04:30.825Z,26.27
2018-11-01T21:06:58.996Z,25.77
2018-11-01T21:09:27.193Z,25.00
2018-11-01T21:11:55.602Z,26.20
2018-11-01T21:14:23.628Z,31.80
2018-11-01T21:16:51.832Z,43.07
2018-11-01T21:19:19.966Z,28.30
2018-11-01T21:21:48.132Z,26.00
2018-11-01T21:24:16.314Z,25.70
2018-11-01T21:26:44.478Z,25.30
2018-11-01T21:29:12.732Z,25.90
2018-11-01T21:31:40.834Z,26.73
2018-11-01T21:34:09.261Z,26.23
2018-11-01T21:36:37.499Z,24.40
2018-11-01T21:39:07.535Z,26.37
2018-11-01T21:41:35.732Z,24.93
2018-11-01T21:44:03.850Z,26.10
2018-11-01T21:46:32.087Z,25.93
2018-11-01T21:49:00.282Z,24.33
2018-11-01T21:51:28.434Z,26.23
2018-11-01T21:53:56.712Z,24.37
2018-11-01T21:56:24.846Z,25.03
2018-11-01T21:58:53.111Z,23.57
2018-11-01T22:01:21.311Z,26.40
2018-11-01T22:03:49.444Z,22.97
2018-11-01T22:06:17.619Z,22.77
2018-11-01T22:08:45.792Z,22.50
2018-11-01T22:11:13.856Z,22.63
2018-11-01T22:13:41.940Z,20.90
2018-11-01T22:16:10.116Z,22.63
2018-11-01T22:18:38.288Z,22.70
2018-11-01T22:21:06.455Z,22.77
2018-11-01T22:23:34.555Z,24.00
2018-11-01T22:26:02.721Z,23.47
2018-11-01T22:28:30.935Z,23.83
2018-11-01T22:30:59.070Z,22.27
2018-11-01T22:33:27.252Z,21.90
2018-11-01T22:35:55.456Z,23.47
2018-11-01T22:38:23.611Z,19.10
2018-11-01T22:40:51.820Z,23.30
2018-11-01T22:43:19.948Z,22.73
2018-11-01T22:45:48.132Z,22.40
2018-11-01T22:48:16.319Z,21.13
2018-11-01T22:50:44.462Z,22.43
2018-11-01T22:53:13.566Z,26.37
2018-11-01T22:55:41.743Z,23.27
2018-11-01T22:58:09.891Z,24.20
2018-11-01T23:00:42.070Z,23.17
2018-11-01T23:03:10.395Z,22.97
2018-11-01T23:05:38.554Z,22.90
2018-11-01T23:08:07.158Z,25.23
2018-11-01T23:10:35.420Z,23.83
2018-11-01T23:13:03.915Z,22.33
2018-11-01T23:15:32.031Z,22.20
2018-11-01T23:18:00.200Z,21.80
2018-11-01T23:20:28.399Z,23.17
2018-11-01T23:22:56.547Z,24.50
2018-11-01T23:25:24.839Z,22.10
2018-11-01T23:27:53.021Z,22.90
2018-11-01T23:30:22.091Z,22.70
2018-11-01T23:32:50.191Z,20.30
2018-11-01T23:35:18.247Z,22.60
2018-11-01T23:37:51.872Z,21.40
2018-11-01T23:40:25.606Z,20.80
2018-11-01T23:42:59.166Z,20.67
2018-11-01T23:45:32.800Z,20.13
2018-11-01T23:48:00.237Z,23.90
2018-11-01T23:50:36.568Z,20.47
2018-11-01T23:53:07.716Z,18.80
2018-11-01T23:55:35.785Z,17.43
2018-11-01T23:58:03.891Z,20.40
